• Join FlightAware (Why Join?)
  • Login
  • US Flag 
01:52AM EST


 

Airport Tracker/Info


-or-


 

Live Flight TrackerFlight Track Log ✈ N933PB ✈ 08-May-2013 ✈ KMKC - KAAO

Flight Track Log - Related Links

Times and Time Zones

All times are in EDT time to prevent confusion due to time zone crossing. See the N933PB flight status page for this flight to view local times or setup timezone preferences in your user account.

Time Position Orientation Groundspeed Altitude Reporting Facility
EDT Latitude Longitude Course Direction KTS MPH feet Rate Location/Type
07:42PM 39.0833 -94.6333 237° Southwest 192 221 3,000  Level Kansas City TRACON
07:43PM 39.0500 -94.6833 229° Southwest 242 278 6,200 3,069 Climbing Kansas City TRACON
07:45PM 39.0242 -94.7800 251° West 251 289 9,700 1,714 Climbing Kansas City Center
07:46PM 39.0414 -94.8731 283° West 278 320 10,000 968 Climbing Kansas City Center
07:47PM 39.0653 -94.9900 285° West 297 342 11,700 1,902 Climbing Kansas City Center
07:48PM 39.0856 -95.0858 285° West 291 335 13,900 2,341 Climbing Kansas City Center
07:49PM 39.1072 -95.2019 284° West 295 339 16,500 2,371 Climbing Kansas City Center
07:50PM 39.0986 -95.3058 264° West 293 337 18,800 2,244 Climbing Kansas City Center
07:51PM 39.0811 -95.4058 257° West 290 334 21,100 1,561 Climbing Kansas City Center
07:52PM 39.0367 -95.5092 241° Southwest 314 361 22,000 435 Climbing Kansas City Center
07:53PM 38.9911 -95.6142 241° Southwest 348 400 22,000  Level Kansas City Center
07:54PM 38.9439 -95.7233 241° Southwest 363 418 22,000  Level Kansas City Center
07:55PM 38.8914 -95.8553 243° Southwest 372 428 22,000  Level Kansas City Center
07:56PM 38.8483 -95.9669 244° Southwest 367 422 22,000  Level Kansas City Center
07:57PM 38.8011 -96.0950 245° Southwest 356 410 22,000  Level Kansas City Center
07:58PM 38.7608 -96.2022 244° Southwest 350 403 22,000 -146 Level Kansas City Center
07:59PM 38.7131 -96.3294 244° Southwest 356 410 21,700 -683 Descending Kansas City Center
08:00PM 38.6656 -96.4389 241° Southwest 365 420 20,600 -1,113 Descending Kansas City Center
08:01PM 38.6194 -96.5469 241° Southwest 363 418 19,400 -1,512 Descending Kansas City Center
08:02PM 38.5625 -96.6647 238° Southwest 350 403 17,500 -1,707 Descending Kansas City Center
08:03PM 38.5025 -96.7475 227° Southwest 327 376 15,900 -1,984 Descending Kansas City Center
08:04PM 38.4294 -96.8111 214° Southwest 311 358 13,400 -2,488 Descending Kansas City Center
08:05PM 38.3600 -96.8606 209° Southwest 287 330 10,800 -2,170 Descending Kansas City Center
08:06PM 38.3236 -96.8997 220° Southwest 241 277 10,000 -774 Descending Kansas City Center
08:06PM 38.3086 -96.9142 217° Southwest 240 276 10,000 -590 Level Kansas City Center
08:07PM 38.2728 -96.9372 207° Southwest 195 224 9,400 -885 Descending Kansas City Center
08:07PM 38.2603 -96.9472 212° Southwest 202 232 9,100 -1,636 Descending Kansas City Center
08:08PM 38.2192 -96.9672 201° Southwest 199 229 7,600 -2,226 Descending Kansas City Center
08:08PM 38.1950 -96.9819 206° Southwest 210 242 6,800 -1,672 Descending Kansas City Center
08:09PM 38.1575 -97.0039 205° Southwest 223 257 5,900 -1,258 Descending Kansas City Center
08:09PM 38.1386 -97.0131 201° Southwest 220 253 5,500 -900 Descending Kansas City Center
08:10PM 38.1014 -97.0317 201° Southwest 223 257 5,000 -787 Descending Kansas City Center
08:10PM 38.0806 -97.0433 204° Southwest 224 258 4,700 -590 Descending Kansas City Center
08:11PM 38.0400 -97.0681 206° Southwest 244 281 4,400 -393 Descending Kansas City Center
08:11PM 38.0178 -97.0781 200° South 243 280 4,300 -492 Descending Kansas City Center
08:12PM 37.9781 -97.0992 203° Southwest 244 281 3,900 -581 Descending Kansas City Center
08:12PM 37.9561 -97.1114 204° Southwest 241 277 3,700 -400 Descending Kansas City Center
08:13PM 37.9167 -97.1383 208° Southwest 244 281 3,500 -290 Descending Kansas City Center
08:13PM 37.8881 -97.1533 202° Southwest 244 281 3,400 -200 Descending Kansas City Center
08:15PM 37.7959 -97.1911 198° South  Level FlightAware Approximate
08:22PM 37.7476 -97.2211 205° Southwest  Level Estimated
08:23PM 37.7476 -97.2211 205° Southwest  Level Estimated